Time;durP1;ratioP1;P1;durP2;ratioP2;P2;SDS_P1;SDS_P2;PMS_P1;PMS_P2;Temp;Humidity;BMP_temperature;BMP_pressure;BME280_temperature;BME280_humidity;BME280_pressure;Samples;Min_cycle;Max_cycle;Signal;HPM_P1;HPM_P2
2022/01/24 00:01:17;;;;;;;11.77;6.60;;;-2.00;87.10;;;-2.43;60.67;95580.84;5032014;28;20473;-58
2022/01/24 00:03:44;;;;;;;7.47;5.97;;;-2.00;86.40;;;-2.41;61.53;95573.06;5042470;28;20491;-58
2022/01/24 00:06:15;;;;;;;14.57;7.17;;;-1.90;87.00;;;-2.40;60.91;95578.16;5037724;28;20500;-58
2022/01/24 00:08:42;;;;;;;13.13;6.67;;;-1.90;86.50;;;-2.38;61.20;95575.56;5037510;28;20457;-58
2022/01/24 00:11:14;;;;;;;7.77;6.17;;;-1.90;86.40;;;-2.34;61.47;95584.84;5040248;28;20780;-58
2022/01/24 00:16:31;;;;;;;11.67;8.10;;;-1.90;86.80;;;-2.35;62.75;95575.47;5039956;28;20464;-58
2022/01/24 00:27:12;;;;;;;8.10;6.53;;;-1.90;87.80;;;-2.33;61.96;95578.81;5035687;28;20996;-59
2022/01/24 00:29:40;;;;;;;10.23;7.10;;;-1.90;88.00;;;-2.33;62.36;95581.41;5036623;28;20448;-58
2022/01/24 00:32:09;;;;;;;13.77;8.73;;;-1.90;88.10;;;-2.34;62.33;95592.59;5037578;28;20473;-58
2022/01/24 00:34:36;;;;;;;14.13;7.93;;;-1.90;88.00;;;-2.36;62.05;95586.63;5038547;28;20444;-58
2022/01/24 00:37:04;;;;;;;18.27;8.23;;;-1.90;87.60;;;-2.34;61.62;95592.59;5040678;28;20850;-58
2022/01/24 00:39:32;;;;;;;12.73;7.17;;;-1.90;87.70;;;-2.33;61.99;95589.13;5041337;28;20480;-58
2022/01/24 00:42:11;;;;;;;12.57;7.77;;;-1.90;87.70;;;-2.30;62.33;95593.34;5040884;28;20471;-58
2022/01/24 00:44:50;;;;;;;14.50;6.93;;;-1.90;87.50;;;-2.28;61.88;95584.69;5032468;28;20518;-58
2022/01/24 00:47:25;;;;;;;9.67;6.87;;;-1.80;87.60;;;-2.25;61.18;95591.47;5033918;28;20476;-59
2022/01/24 00:55:21;;;;;;;12.40;8.00;;;-1.80;87.20;;;-2.22;61.62;95605.09;5038626;28;20458;-58
2022/01/24 00:57:48;;;;;;;15.33;8.63;;;-1.80;87.50;;;-2.20;61.70;95602.50;5039161;28;20456;-57
2022/01/24 01:00:16;;;;;;;14.00;7.40;;;-1.70;87.30;;;-2.18;61.50;95596.41;5039262;28;20447;-57
2022/01/24 01:02:45;;;;;;;12.13;8.10;;;-1.70;87.30;;;-2.14;61.76;95604.88;5037851;28;20565;-57
2022/01/24 01:05:31;;;;;;;13.13;8.03;;;-1.70;87.30;;;-2.13;62.29;95600.59;5036306;28;20951;-58
2022/01/24 01:08:13;;;;;;;11.30;6.80;;;-1.70;88.00;;;-2.13;62.82;95601.44;5039242;28;20836;-57
2022/01/24 01:18:56;;;;;;;15.23;6.90;;;-1.70;87.50;;;-2.10;61.00;95606.50;5040987;28;20423;-57
2022/01/24 01:21:24;;;;;;;10.07;7.27;;;-1.70;86.70;;;-2.08;61.97;95599.56;5037574;28;21067;-58
2022/01/24 01:23:55;;;;;;;11.93;7.40;;;-1.60;87.00;;;-2.06;61.83;95596.94;5037482;28;20873;-59
2022/01/24 01:26:28;;;;;;;8.90;7.60;;;-1.60;87.00;;;-2.04;61.88;95597.75;5036039;28;20547;-58
2022/01/24 01:29:00;;;;;;;14.27;8.10;;;-1.60;87.40;;;-2.03;61.48;95602.84;5039403;28;20556;-57
2022/01/24 01:31:37;;;;;;;12.20;8.10;;;-1.60;87.10;;;-2.01;61.18;95600.25;5036216;28;20464;-57
2022/01/24 01:34:18;;;;;;;14.57;7.53;;;-1.60;87.40;;;-1.99;61.78;95601.84;5036831;28;20455;-57
2022/01/24 01:53:50;;;;;;;12.47;7.83;;;-1.60;86.80;;;-2.04;60.79;95596.00;5038199;28;20433;-58
2022/01/24 01:56:18;;;;;;;13.70;7.83;;;-1.60;86.70;;;-2.06;61.72;95597.78;5041003;28;20530;-58
2022/01/24 01:58:45;;;;;;;8.83;7.10;;;-1.60;86.80;;;-2.07;61.06;95600.41;5035915;28;20453;-57
2022/01/24 02:01:12;;;;;;;12.50;8.00;;;-1.60;86.90;;;-2.08;60.99;95609.03;5037785;28;20479;-57
2022/01/24 02:03:40;;;;;;;11.17;7.43;;;-1.60;86.90;;;-2.11;60.76;95601.38;5039173;28;20876;-58
2022/01/24 02:06:08;;;;;;;15.63;8.13;;;-1.70;86.70;;;-2.14;61.33;95599.72;5037086;28;20501;-56
2022/01/24 02:08:37;;;;;;;11.90;8.00;;;-1.70;87.00;;;-2.17;61.79;95599.81;5038596;28;20448;-57
2022/01/24 02:11:04;;;;;;;7.87;6.90;;;-1.70;87.00;;;-2.17;61.80;95602.41;5042504;28;20479;-58
2022/01/24 02:13:32;;;;;;;12.20;8.00;;;-1.70;86.70;;;-2.20;61.65;95605.94;5042219;28;20704;-58
2022/01/24 02:16:09;;;;;;;10.63;8.60;;;-1.70;86.70;;;-2.19;61.25;95611.91;5043866;28;20481;-57
2022/01/24 02:18:44;;;;;;;11.20;7.80;;;-1.70;87.20;;;-2.21;61.76;95600.81;5038014;28;20482;-57
2022/01/24 02:21:27;;;;;;;9.27;7.27;;;-1.70;87.10;;;-2.21;61.91;95599.06;5039853;28;20502;-57
2022/01/24 02:23:58;;;;;;;13.20;8.10;;;-1.70;87.00;;;-2.22;62.01;95606.84;5038832;28;20617;-57
2022/01/24 02:26:25;;;;;;;12.70;7.93;;;-1.70;87.30;;;-2.22;62.19;95605.09;5039864;28;20817;-57
2022/01/24 02:29:01;;;;;;;13.17;7.93;;;-1.70;87.30;;;-2.22;61.73;95607.69;5047592;28;20462;-57
2022/01/24 02:31:42;;;;;;;9.23;7.93;;;-1.80;87.20;;;-2.21;61.42;95611.97;5042994;28;20511;-57
2022/01/24 02:34:29;;;;;;;13.43;8.93;;;-1.70;87.40;;;-2.22;61.99;95615.41;5041122;28;20445;-57
2022/01/24 02:36:59;;;;;;;13.87;8.60;;;-1.70;88.50;;;-2.22;62.10;95602.53;5043443;28;20476;-58
2022/01/24 02:50:39;;;;;;;13.97;8.73;;;-1.80;87.20;;;-2.28;61.96;95618.16;5041968;28;20542;-58
2022/01/24 02:53:08;;;;;;;16.87;9.77;;;-1.80;87.10;;;-2.31;62.03;95617.41;5038900;28;20441;-58
2022/01/24 02:55:37;;;;;;;15.00;9.90;;;-1.90;87.00;;;-2.33;61.25;95621.78;5038399;28;20887;-56
2022/01/24 02:58:04;;;;;;;15.50;9.27;;;-1.90;86.90;;;-2.37;61.69;95626.16;5041346;28;20464;-58
2022/01/24 03:00:31;;;;;;;12.33;8.87;;;-1.90;86.60;;;-2.40;62.01;95626.25;5040008;28;20475;-57
2022/01/24 03:02:59;;;;;;;12.17;8.10;;;-1.90;87.10;;;-2.44;61.54;95629.81;5038567;28;20487;-57
2022/01/24 03:05:26;;;;;;;14.10;9.60;;;-2.00;86.70;;;-2.48;62.35;95626.47;5044532;28;20476;-57
2022/01/24 03:07:53;;;;;;;11.23;8.03;;;-2.00;87.10;;;-2.51;61.81;95631.69;5037517;28;20452;-58
2022/01/24 03:10:28;;;;;;;10.60;8.13;;;-2.00;86.80;;;-2.54;61.98;95637.78;5038989;28;20481;-57
2022/01/24 03:13:10;;;;;;;12.53;7.73;;;-2.00;86.90;;;-2.57;61.20;95642.16;5036643;28;20460;-58
2022/01/24 03:15:38;;;;;;;12.10;8.87;;;-2.10;86.90;;;-2.59;62.10;95633.66;5039811;28;20476;-57
2022/01/24 03:18:05;;;;;;;15.33;9.37;;;-2.10;87.60;;;-2.59;62.22;95649.09;5039809;28;20453;-58
2022/01/24 03:20:33;;;;;;;15.30;10.03;;;-2.10;87.20;;;-2.60;61.45;95648.25;5041055;28;20467;-57
2022/01/24 03:23:01;;;;;;;12.93;8.40;;;-2.10;87.50;;;-2.58;62.43;95650.78;5039959;28;20464;-58
2022/01/24 03:25:29;;;;;;;11.10;8.13;;;-2.10;87.60;;;-2.56;62.48;95646.44;5040977;28;20475;-57
2022/01/24 03:27:57;;;;;;;13.57;9.17;;;-2.10;87.80;;;-2.55;61.36;95648.97;5038607;28;20456;-57
2022/01/24 03:30:24;;;;;;;16.87;9.03;;;-2.10;87.70;;;-2.53;62.31;95652.34;5040011;28;20989;-57
2022/01/24 03:32:52;;;;;;;14.13;9.10;;;-2.00;87.90;;;-2.49;62.16;95659.97;5037026;28;20456;-57
2022/01/24 03:35:19;;;;;;;11.67;8.67;;;-2.00;87.90;;;-2.49;61.63;95655.69;5038324;28;20480;-57
2022/01/24 03:37:46;;;;;;;15.40;9.30;;;-2.00;87.80;;;-2.46;62.17;95659.91;5035814;28;20457;-58
2022/01/24 03:40:13;;;;;;;18.10;8.23;;;-2.00;88.10;;;-2.42;62.42;95666.66;5036876;28;20441;-57
2022/01/24 03:42:42;;;;;;;14.40;8.47;;;-1.90;88.00;;;-2.40;61.66;95673.47;5042242;28;20453;-58
2022/01/24 03:45:11;;;;;;;14.33;8.50;;;-1.90;88.10;;;-2.36;62.40;95676.81;5037726;28;20875;-57
2022/01/24 03:48:01;;;;;;;15.00;8.50;;;-1.90;88.10;;;-2.35;61.69;95683.66;5036790;28;20453;-57
2022/01/24 03:50:29;;;;;;;13.10;8.60;;;-1.90;87.90;;;-2.33;62.49;95684.44;5038905;28;20484;-57
2022/01/24 03:52:56;;;;;;;11.83;9.00;;;-1.80;88.10;;;-2.32;62.18;95685.28;5042290;28;20456;-57
2022/01/24 03:55:23;;;;;;;12.10;8.53;;;-1.80;87.90;;;-2.30;61.97;95692.09;5037789;28;20481;-57
2022/01/24 03:57:52;;;;;;;12.80;8.20;;;-1.80;87.80;;;-2.28;61.71;95690.31;5038396;28;20531;-57
2022/01/24 04:00:19;;;;;;;14.13;8.47;;;-1.80;88.10;;;-2.26;62.26;95688.56;5037352;28;20476;-58
2022/01/24 04:02:47;;;;;;;14.20;9.07;;;-1.80;88.00;;;-2.22;62.44;95690.16;5038265;28;20874;-58
2022/01/24 04:05:14;;;;;;;11.87;8.57;;;-1.70;88.10;;;-2.20;61.53;95696.13;5037752;28;20490;-56
2022/01/24 04:07:42;;;;;;;12.00;7.70;;;-1.70;87.80;;;-2.17;61.38;95690.00;5041786;28;20456;-57
2022/01/24 04:10:11;;;;;;;23.83;8.90;;;-1.70;87.60;;;-2.16;61.75;95704.59;5039702;28;20539;-58
2022/01/24 04:12:40;;;;;;;12.47;9.17;;;-1.70;87.50;;;-2.15;61.55;95701.16;5038871;28;20461;-57
2022/01/24 04:15:26;;;;;;;15.40;9.07;;;-1.70;87.30;;;-2.14;61.61;95700.25;5039041;28;20539;-57
2022/01/24 04:18:11;;;;;;;12.70;8.70;;;-1.70;87.20;;;-2.13;61.83;95698.53;5039536;28;20478;-56
2022/01/24 04:23:24;;;;;;;13.27;8.83;;;-1.70;87.30;;;-2.15;61.63;95711.44;5035383;28;20491;-57
2022/01/24 04:25:51;;;;;;;12.83;8.07;;;-1.70;87.30;;;-2.18;62.13;95712.38;5035675;28;20480;-58
2022/01/24 04:28:19;;;;;;;13.40;8.57;;;-1.70;87.30;;;-2.21;60.65;95716.78;5039812;28;20452;-58
2022/01/24 04:30:47;;;;;;;14.93;8.17;;;-1.70;86.80;;;-2.27;62.00;95727.25;5041859;28;21107;-57
2022/01/24 04:33:15;;;;;;;11.33;8.20;;;-1.80;86.90;;;-2.36;61.07;95726.59;5037861;28;20481;-59
2022/01/24 04:35:42;;;;;;;12.73;9.10;;;-1.90;86.80;;;-2.41;61.53;95735.34;5038766;28;20467;-58
2022/01/24 04:38:09;;;;;;;15.40;9.63;;;-1.90;86.80;;;-2.46;61.21;95737.16;5038436;28;20452;-57
2022/01/24 04:40:37;;;;;;;17.70;10.63;;;-2.00;87.00;;;-2.55;61.57;95741.69;5038203;28;20488;-58
2022/01/24 04:43:26;;;;;;;17.77;10.47;;;-2.10;87.20;;;-2.60;62.02;95745.25;5038234;28;20444;-58
2022/01/24 04:46:12;;;;;;;23.13;11.77;;;-2.10;87.20;;;-2.65;62.01;95752.25;5040667;28;21026;-58
2022/01/24 04:51:36;;;;;;;20.40;11.20;;;-2.20;86.80;;;-2.72;61.27;95751.56;5033719;28;20467;-57
2022/01/24 04:56:45;;;;;;;17.47;9.10;;;-2.20;86.30;;;-2.76;60.70;95748.22;5033152;28;20463;-58
2022/01/24 04:59:13;;;;;;;15.77;10.27;;;-2.30;86.20;;;-2.76;60.48;95760.25;5039499;28;20828;-57
2022/01/24 05:01:41;;;;;;;19.17;9.03;;;-2.30;86.00;;;-2.81;60.89;95765.50;5036743;28;20836;-56
2022/01/24 05:04:09;;;;;;;18.87;10.67;;;-2.30;85.60;;;-2.85;60.83;95770.75;5036081;28;21023;-57
2022/01/24 05:06:36;;;;;;;19.53;10.00;;;-2.40;85.00;;;-2.94;60.68;95761.56;5039803;28;20468;-59
2022/01/24 05:09:04;;;;;;;20.93;10.07;;;-2.40;84.30;;;-3.01;59.71;95763.41;5035584;28;20986;-56
2022/01/24 05:11:38;;;;;;;15.70;10.00;;;-2.50;84.40;;;-3.06;60.25;95768.66;5038558;28;20565;-58
2022/01/24 05:25:23;;;;;;;8.00;6.43;;;-2.60;82.40;;;-3.14;59.08;95793.72;5030708;28;20499;-58
2022/01/24 05:27:51;;;;;;;9.50;5.27;;;-2.60;81.90;;;-3.14;57.84;95798.88;5037002;28;20448;-57
2022/01/24 05:30:18;;;;;;;7.00;5.20;;;-2.60;81.60;;;-3.13;58.70;95807.44;5035657;28;20489;-58
2022/01/24 05:32:47;;;;;;;8.10;6.17;;;-2.60;81.60;;;-3.12;59.18;95809.97;5033437;28;20453;-57
2022/01/24 05:35:15;;;;;;;12.90;6.53;;;-2.60;81.80;;;-3.12;58.35;95817.69;5033954;28;20456;-58
2022/01/24 05:37:42;;;;;;;15.00;8.20;;;-2.60;80.90;;;-3.17;57.50;95811.81;5036006;28;20507;-61
2022/01/24 05:40:10;;;;;;;14.03;7.87;;;-2.60;80.10;;;-3.25;57.50;95819.69;5037703;28;20455;-58
2022/01/24 05:42:38;;;;;;;15.63;7.77;;;-2.70;80.10;;;-3.33;58.43;95826.72;5038782;28;20811;-58
2022/01/24 05:45:07;;;;;;;14.47;7.57;;;-2.80;80.00;;;-3.42;57.92;95826.91;5035375;28;20552;-58
2022/01/24 05:47:34;;;;;;;10.70;7.50;;;-2.90;79.50;;;-3.49;58.29;95822.78;5040987;28;20456;-57
2022/01/24 05:50:03;;;;;;;8.03;6.30;;;-2.90;80.10;;;-3.51;57.88;95832.25;5041501;28;20550;-57
2022/01/24 05:52:30;;;;;;;12.30;6.80;;;-3.00;79.90;;;-3.48;57.82;95832.19;5044090;28;20452;-59
2022/01/24 05:54:58;;;;;;;15.87;7.57;;;-3.00;80.60;;;-3.43;58.19;95844.06;5042842;28;20448;-58
2022/01/24 05:57:25;;;;;;;13.90;7.80;;;-2.90;81.00;;;-3.36;57.53;95847.38;5042554;28;20842;-59
2022/01/24 05:59:52;;;;;;;12.50;6.83;;;-2.90;80.10;;;-3.31;58.14;95858.41;5043195;28;20555;-58
2022/01/24 06:02:20;;;;;;;9.60;6.60;;;-2.80;79.60;;;-3.27;58.06;95849.75;5033391;28;20480;-57
2022/01/24 06:04:47;;;;;;;19.13;6.53;;;-2.80;79.30;;;-3.23;57.55;95859.97;5041941;28;20498;-59
2022/01/24 06:07:16;;;;;;;9.37;4.93;;;-2.80;78.40;;;-3.24;56.43;95864.25;5040001;28;20613;-58
2022/01/24 06:09:43;;;;;;;5.03;3.87;;;-2.70;78.10;;;-3.25;56.28;95865.16;5040889;28;20448;-58
2022/01/24 06:12:11;;;;;;;16.40;3.83;;;-2.70;77.70;;;-3.25;56.96;95876.28;5038341;28;21003;-58
2022/01/24 06:14:39;;;;;;;8.90;5.80;;;-2.80;77.50;;;-3.26;56.56;95882.28;5039008;28;20929;-58
2022/01/24 06:17:06;;;;;;;7.30;4.97;;;-2.80;77.40;;;-3.26;56.49;95890.00;5037745;28;20470;-58
2022/01/24 06:19:33;;;;;;;8.10;6.10;;;-2.80;77.90;;;-3.22;56.59;95889.94;5037580;28;20524;-58
2022/01/24 06:22:01;;;;;;;11.10;6.10;;;-2.70;78.70;;;-3.20;57.56;95890.78;5046014;28;20498;-58
2022/01/24 06:24:30;;;;;;;7.50;5.73;;;-2.70;78.80;;;-3.15;56.65;95897.50;5036894;28;20690;-58
2022/01/24 06:26:57;;;;;;;10.90;6.00;;;-2.70;78.40;;;-3.11;56.86;95899.16;5033218;28;20472;-59
2022/01/24 06:29:24;;;;;;;8.57;6.07;;;-2.60;79.50;;;-3.04;57.09;95891.31;5036166;28;20890;-59
2022/01/24 06:31:52;;;;;;;7.97;5.90;;;-2.60;79.70;;;-3.00;57.19;95906.66;5038470;28;20473;-58
2022/01/24 06:34:19;;;;;;;10.40;6.70;;;-2.50;78.90;;;-2.97;57.00;95906.59;5037915;28;20456;-58
2022/01/24 06:36:47;;;;;;;15.47;8.20;;;-2.50;78.70;;;-2.93;57.23;95913.38;5040766;28;20477;-58
2022/01/24 06:39:15;;;;;;;13.10;7.47;;;-2.50;78.40;;;-2.88;56.43;95910.69;5040889;28;20824;-58
2022/01/24 06:41:51;;;;;;;18.70;9.83;;;-2.40;78.60;;;-2.83;57.42;95908.88;5040872;28;20468;-58
2022/01/24 06:44:18;;;;;;;19.57;9.87;;;-2.40;78.50;;;-2.78;57.14;95911.34;5037155;28;20502;-58
2022/01/24 06:46:45;;;;;;;18.00;9.90;;;-2.30;77.90;;;-2.73;57.15;95909.50;5037033;28;20928;-58
2022/01/24 06:49:13;;;;;;;23.50;10.20;;;-2.30;78.10;;;-2.68;55.00;95912.84;5046058;28;20874;-58
2022/01/24 06:51:41;;;;;;;16.87;9.30;;;-2.30;77.00;;;-2.64;56.96;95911.88;5035544;28;20479;-58
2022/01/24 06:54:08;;;;;;;13.67;9.27;;;-2.20;77.20;;;-2.60;55.31;95913.50;5040192;28;20456;-58
2022/01/24 06:56:35;;;;;;;13.07;8.57;;;-2.10;76.20;;;-2.55;56.33;95911.66;5041619;28;20468;-58
2022/01/24 06:59:05;;;;;;;14.37;8.07;;;-2.10;76.60;;;-2.53;55.81;95912.47;5041221;28;20449;-58
2022/01/24 07:01:32;;;;;;;11.07;6.90;;;-2.10;75.80;;;-2.47;55.18;95916.63;5038276;28;20472;-59
2022/01/24 07:03:59;;;;;;;7.33;5.83;;;-2.00;76.30;;;-2.41;55.40;95924.22;5040117;28;20510;-58
2022/01/24 07:06:27;;;;;;;7.07;5.87;;;-2.00;76.20;;;-2.37;54.88;95922.41;5037746;28;20477;-58
2022/01/24 07:08:54;;;;;;;9.47;6.30;;;-1.90;75.50;;;-2.33;54.64;95924.03;5040934;28;20493;-58
2022/01/24 07:11:21;;;;;;;6.10;5.57;;;-1.90;75.40;;;-2.28;55.10;95934.25;5038810;28;21018;-59
2022/01/24 07:13:50;;;;;;;12.77;6.57;;;-1.80;75.30;;;-2.25;54.40;95929.84;5036202;28;20464;-58
2022/01/24 07:16:18;;;;;;;11.67;5.20;;;-1.80;74.50;;;-2.22;54.97;95932.34;5040143;28;20467;-58
2022/01/24 07:19:03;;;;;;;7.47;5.77;;;-1.80;74.30;;;-2.21;54.28;95934.06;5042026;28;20456;-58
2022/01/24 07:21:31;;;;;;;7.77;5.80;;;-1.80;74.30;;;-2.18;53.89;95936.56;5036851;28;20605;-58
2022/01/24 07:23:58;;;;;;;7.83;6.03;;;-1.70;73.60;;;-2.12;53.76;95933.00;5040378;28;20468;-58
2022/01/24 07:26:25;;;;;;;9.50;4.67;;;-1.70;73.60;;;-2.05;54.00;95936.28;5040712;28;20993;-58
2022/01/24 07:28:53;;;;;;;6.17;4.23;;;-1.70;73.00;;;-2.00;53.55;95948.19;5039710;28;20457;-58
2022/01/24 07:31:22;;;;;;;7.47;6.00;;;-1.60;72.60;;;-1.94;53.99;95956.63;5038351;28;20477;-58
2022/01/24 07:33:50;;;;;;;7.30;5.70;;;-1.60;73.00;;;-1.88;53.71;95959.91;5037676;28;20965;-58
2022/01/24 07:36:17;;;;;;;11.83;7.20;;;-1.50;73.30;;;-1.79;54.30;95960.59;5037443;28;20529;-59
2022/01/24 07:38:45;;;;;;;8.23;5.60;;;-1.40;72.90;;;-1.66;53.25;95964.53;5038775;28;20449;-58
2022/01/24 07:41:12;;;;;;;9.00;6.60;;;-1.30;72.70;;;-1.57;53.74;95966.88;5038887;28;20580;-59
2022/01/24 07:43:39;;;;;;;7.10;5.13;;;-1.20;72.00;;;-1.52;51.74;95974.50;5038237;28;20464;-58
2022/01/24 07:46:07;;;;;;;5.10;4.60;;;-1.10;70.40;;;-1.51;53.13;95974.44;5039511;28;20580;-58
2022/01/24 07:48:35;;;;;;;6.40;5.80;;;-1.10;71.50;;;-1.49;53.04;95975.28;5036093;28;20449;-58
2022/01/24 07:51:04;;;;;;;10.30;6.60;;;-1.10;71.50;;;-1.48;52.90;95982.13;5036966;28;20473;-58
2022/01/24 07:53:31;;;;;;;16.47;8.20;;;-1.10;70.80;;;-1.51;52.49;95986.50;5037906;28;20570;-58
2022/01/24 07:55:58;;;;;;;18.40;6.93;;;-1.10;70.80;;;-1.55;53.30;95988.34;5036216;28;20553;-59
2022/01/24 07:58:26;;;;;;;14.27;8.20;;;-1.10;72.10;;;-1.57;53.93;95992.66;5036543;28;20876;-58
2022/01/24 08:00:53;;;;;;;7.03;6.23;;;-1.20;72.90;;;-1.61;54.07;95998.81;5031987;28;21064;-58
2022/01/24 08:03:20;;;;;;;15.67;7.73;;;-1.20;73.50;;;-1.63;54.49;96001.44;5035967;28;20459;-58
2022/01/24 08:05:49;;;;;;;22.30;8.20;;;-1.20;74.50;;;-1.57;54.81;96005.56;5036392;28;20500;-58
2022/01/24 08:08:17;;;;;;;24.67;11.97;;;-1.20;75.10;;;-1.53;55.33;96001.19;5039077;28;20465;-58
2022/01/24 08:10:44;;;;;;;23.63;11.27;;;-1.10;75.30;;;-1.47;55.40;96004.47;5038211;28;20473;-58
2022/01/24 08:13:13;;;;;;;17.40;10.37;;;-1.10;75.30;;;-1.36;54.92;96016.25;5037309;28;20467;-58
2022/01/24 08:15:40;;;;;;;14.63;7.87;;;-1.00;75.30;;;-1.28;54.56;96017.72;5032433;28;20465;-57
2022/01/24 08:18:09;;;;;;;14.90;8.60;;;-0.90;75.10;;;-1.17;54.60;96016.63;5033321;28;20460;-59
2022/01/24 08:20:36;;;;;;;17.77;7.20;;;-0.80;75.00;;;-1.08;54.85;96012.03;5039041;28;20471;-57
2022/01/24 08:23:05;;;;;;;9.67;7.20;;;-0.70;74.70;;;-0.97;53.95;96011.75;5034775;28;20779;-58
2022/01/24 08:25:33;;;;;;;9.57;7.20;;;-0.60;74.10;;;-0.89;53.69;96014.13;5036729;28;20952;-58
2022/01/24 08:28:00;;;;;;;11.37;6.50;;;-0.60;73.40;;;-0.90;53.35;96012.41;5045479;28;20518;-57
2022/01/24 08:30:28;;;;;;;11.00;7.53;;;-0.50;72.70;;;-0.87;53.59;96022.66;5035933;28;20469;-58
2022/01/24 08:32:55;;;;;;;16.30;7.33;;;-0.50;72.70;;;-0.88;53.54;96021.00;5037810;28;20844;-58
2022/01/24 08:35:22;;;;;;;12.50;8.17;;;-0.50;73.00;;;-0.82;52.95;96028.56;5034588;28;20566;-57
2022/01/24 08:37:50;;;;;;;9.13;6.37;;;-0.50;72.70;;;-0.76;52.73;96036.16;5038354;28;21104;-57
2022/01/24 08:40:24;;;;;;;12.40;7.87;;;-0.40;71.80;;;-0.72;53.11;96031.75;5038920;28;20507;-58
2022/01/24 08:42:57;;;;;;;12.00;7.87;;;-0.40;72.20;;;-0.68;51.98;96029.91;5041380;28;20790;-58
2022/01/24 08:45:50;;;;;;;11.10;7.77;;;-0.40;70.80;;;-0.68;52.40;96028.19;5039112;28;20488;-57
2022/01/24 08:48:19;;;;;;;12.67;7.07;;;-0.40;70.70;;;-0.68;52.13;96035.06;5034966;28;20449;-57
2022/01/24 08:50:50;;;;;;;9.50;6.50;;;-0.30;70.60;;;-0.70;52.53;96029.13;5037354;28;20527;-57
2022/01/24 08:53:18;;;;;;;14.90;8.30;;;-0.30;71.20;;;-0.74;52.06;96039.53;5036285;28;20467;-58
2022/01/24 08:55:47;;;;;;;14.50;8.00;;;-0.40;70.30;;;-0.80;52.98;96042.28;5038041;28;20505;-58
2022/01/24 08:58:15;;;;;;;9.93;6.90;;;-0.40;71.00;;;-0.81;52.97;96040.56;5032649;28;20979;-58
2022/01/24 09:00:43;;;;;;;14.10;7.83;;;-0.40;71.20;;;-0.80;52.22;96052.63;5036615;28;20476;-58
2022/01/24 09:03:11;;;;;;;9.23;6.83;;;-0.40;70.70;;;-0.78;52.64;96052.56;5036100;28;20536;-58
2022/01/24 09:05:40;;;;;;;11.60;7.30;;;-0.40;71.20;;;-0.77;52.11;96052.53;5036489;28;20550;-58
2022/01/24 09:08:08;;;;;;;16.53;8.23;;;-0.40;70.40;;;-0.78;52.57;96050.81;5040353;28;20451;-58
2022/01/24 09:10:37;;;;;;;15.27;8.60;;;-0.40;70.70;;;-0.74;51.90;96060.19;5036721;28;20464;-57
2022/01/24 09:13:06;;;;;;;12.03;7.50;;;-0.40;70.10;;;-0.68;51.87;96053.16;5033317;28;20467;-58
2022/01/24 09:15:33;;;;;;;10.70;6.90;;;-0.30;69.50;;;-0.64;51.48;96054.78;5040723;28;20815;-58
2022/01/24 09:18:02;;;;;;;12.70;8.00;;;-0.30;68.90;;;-0.64;52.00;96057.34;5038256;28;20847;-58
2022/01/24 09:20:30;;;;;;;13.40;9.17;;;-0.30;69.80;;;-0.63;51.61;96059.91;5038909;28;20833;-58
2022/01/24 09:22:57;;;;;;;15.43;10.60;;;-0.20;69.80;;;-0.56;51.83;96055.41;5042029;28;20881;-58
2022/01/24 09:25:24;;;;;;;20.40;10.70;;;-0.20;69.90;;;-0.44;51.92;96060.22;5044488;28;20607;-58
2022/01/24 09:27:52;;;;;;;14.47;8.50;;;-0.10;69.60;;;-0.31;50.55;96054.69;5040775;28;20452;-58
2022/01/24 09:30:23;;;;;;;18.57;9.70;;;0.00;68.40;;;-0.22;50.83;96057.03;5044350;28;20471;-57
2022/01/24 09:32:50;;;;;;;16.90;8.30;;;0.10;68.10;;;-0.15;51.54;96061.13;5037606;28;20452;-58
2022/01/24 09:35:18;;;;;;;17.57;10.63;;;0.20;68.30;;;-0.10;50.14;96053.22;5034585;28;20504;-58
2022/01/24 09:37:47;;;;;;;19.13;10.00;;;0.20;67.10;;;-0.01;50.93;96056.38;5039007;28;20449;-58
2022/01/24 09:40:15;;;;;;;11.77;7.57;;;0.30;67.40;;;0.18;49.81;96050.66;5041653;28;20475;-57
2022/01/24 09:42:43;;;;;;;16.40;8.90;;;0.50;66.80;;;0.41;49.53;96049.91;5041511;28;20870;-58
2022/01/24 09:45:12;;;;;;;15.57;8.33;;;0.70;66.70;;;0.81;49.84;96047.78;5041125;28;20491;-58
2022/01/24 09:47:41;;;;;;;15.63;9.03;;;1.00;67.00;;;1.25;48.81;96047.97;5042504;28;20965;-58
2022/01/24 09:50:10;;;;;;;15.97;11.13;;;1.40;64.10;;;1.61;47.35;96047.56;5038902;28;20514;-58
2022/01/24 09:52:40;;;;;;;20.37;10.40;;;1.70;62.20;;;2.02;46.44;96044.34;5043387;28;20451;-58
2022/01/24 09:55:08;;;;;;;20.30;10.47;;;2.20;60.60;;;2.63;44.31;96046.25;5037296;28;20472;-59
2022/01/24 09:57:36;;;;;;;17.70;10.40;;;2.60;59.50;;;3.31;45.65;96044.25;5037333;28;20455;-59
2022/01/24 10:00:04;;;;;;;12.70;8.70;;;3.30;60.60;;;4.02;45.57;96035.06;5043663;28;20448;-58
2022/01/24 10:02:31;;;;;;;14.57;9.80;;;3.90;59.80;;;4.70;43.62;96037.06;5035858;28;20543;-58
2022/01/24 10:05:15;;;;;;;17.73;9.23;;;4.60;56.80;;;5.52;43.28;96031.19;5041644;28;20453;-58
2022/01/24 10:07:43;;;;;;;12.53;7.93;;;5.30;57.00;;;6.30;40.10;96031.38;5041112;28;20444;-59
2022/01/24 10:10:11;;;;;;;12.00;8.10;;;6.10;54.10;;;7.05;38.28;96030.66;5042221;28;20448;-59
2022/01/24 10:18:05;;;;;;;8.50;5.67;;;8.10;44.50;;;8.54;34.67;96021.56;5040500;28;20427;-60
2022/01/24 10:20:35;;;;;;;8.20;6.63;;;8.40;44.50;;;8.56;35.23;96017.03;5035947;28;20550;-58
2022/01/24 10:23:09;;;;;;;9.10;6.57;;;8.50;43.10;;;8.45;34.49;96021.31;5040894;28;20452;-59
2022/01/24 10:25:51;;;;;;;9.20;6.70;;;8.40;44.20;;;8.56;34.34;96016.22;5038131;28;20480;-60
2022/01/24 10:28:28;;;;;;;12.90;7.43;;;8.60;43.50;;;8.73;34.64;96015.13;5039274;28;20460;-63
2022/01/24 10:31:12;;;;;;;10.83;8.20;;;8.80;42.50;;;9.06;34.31;96011.22;5042473;28;20467;-59
2022/01/24 10:34:03;;;;;;;12.27;7.93;;;9.00;43.80;;;9.43;31.63;96006.94;5041989;28;20443;-58
2022/01/24 10:36:40;;;;;;;8.37;6.17;;;9.40;41.30;;;9.60;32.23;96005.78;5040398;28;20464;-59
2022/01/24 10:39:14;;;;;;;6.47;5.80;;;9.60;39.60;;;9.70;32.98;96008.63;5041011;28;20444;-58
2022/01/24 10:41:56;;;;;;;9.03;6.17;;;9.70;40.80;;;9.52;31.91;96002.84;5041093;28;20917;-59
2022/01/24 10:44:31;;;;;;;9.73;5.73;;;9.50;39.40;;;9.26;31.85;96002.81;5040209;28;20435;-58
2022/01/24 10:47:16;;;;;;;6.87;5.67;;;9.50;39.30;;;9.40;30.33;96007.16;5041113;28;20506;-58
2022/01/24 10:49:44;;;;;;;6.53;5.77;;;9.40;39.20;;;8.92;33.06;96007.75;5037871;28;20467;-59
2022/01/24 10:52:14;;;;;;;5.83;5.07;;;9.10;40.20;;;8.24;31.73;96012.06;5036165;28;20480;-59
2022/01/24 10:54:41;;;;;;;6.20;4.80;;;8.60;38.20;;;7.51;33.06;96015.69;5038851;28;20925;-58
2022/01/24 10:57:08;;;;;;;6.17;5.57;;;8.00;38.80;;;6.90;32.40;96030.59;5033834;28;20467;-58
2022/01/24 10:59:36;;;;;;;9.20;6.80;;;7.40;39.00;;;6.19;32.41;96023.28;5039435;28;20444;-59
2022/01/24 11:02:04;;;;;;;13.40;7.23;;;6.70;38.70;;;5.41;34.77;96029.13;5038878;28;20910;-60
2022/01/24 11:04:33;;;;;;;5.13;4.63;;;6.00;40.50;;;4.76;37.21;96032.38;5038630;28;20480;-59
2022/01/24 11:07:02;;;;;;;5.20;4.70;;;5.30;43.20;;;4.28;37.65;96016.44;5038679;28;20534;-59
2022/01/24 11:09:32;;;;;;;8.33;5.63;;;4.80;44.40;;;4.16;38.28;96019.63;5041128;28;20452;-59
2022/01/24 11:12:05;;;;;;;10.57;6.90;;;4.60;45.20;;;4.60;37.93;96021.88;5036119;28;20523;-58
2022/01/24 11:14:32;;;;;;;6.20;5.00;;;4.80;45.30;;;5.23;37.67;96023.09;5039156;28;21023;-57
2022/01/24 11:17:00;;;;;;;5.50;4.70;;;5.20;45.70;;;5.74;36.29;96018.66;5036821;28;21035;-58
2022/01/24 11:19:32;;;;;;;9.83;5.83;;;5.60;45.50;;;5.81;35.85;96007.91;5037070;28;20451;-58
2022/01/24 11:22:01;;;;;;;5.37;4.87;;;5.80;43.60;;;5.91;36.29;96012.53;5046148;28;20559;-59
2022/01/24 11:24:38;;;;;;;5.50;5.10;;;6.10;43.50;;;6.18;35.16;96008.53;5037837;28;20463;-58
2022/01/24 11:27:06;;;;;;;7.93;5.90;;;6.30;42.60;;;6.45;34.27;96017.44;5039416;28;20495;-58
2022/01/24 11:29:34;;;;;;;6.00;5.33;;;6.60;41.20;;;6.72;32.31;96013.38;5039000;28;20559;-58
2022/01/24 11:32:11;;;;;;;7.50;5.20;;;6.80;39.40;;;6.87;34.97;96009.88;5038754;28;20499;-58
2022/01/24 11:34:40;;;;;;;8.50;4.80;;;7.00;41.60;;;7.09;32.44;96009.44;5035013;28;20451;-58
2022/01/24 11:37:08;;;;;;;5.97;5.03;;;7.20;40.10;;;7.21;29.80;96009.69;5035923;28;20484;-58
2022/01/24 11:39:38;;;;;;;9.40;5.30;;;7.40;37.10;;;7.20;29.48;96010.59;5036871;28;20460;-59
2022/01/24 11:42:06;;;;;;;7.80;5.40;;;7.30;35.50;;;7.12;33.38;96011.88;5041373;28;20477;-58
2022/01/24 11:44:48;;;;;;;5.20;4.80;;;7.30;39.70;;;7.06;32.27;96027.09;5040904;28;20480;-59
2022/01/24 11:47:22;;;;;;;6.00;5.33;;;7.20;38.10;;;7.11;33.12;96023.31;5039389;28;20523;-59